Bakaly, Russia
Current Conditions -  °F | °C
As of 9:30 PM on Monday 26 Jan 2015 (Local Time) from UWKE Reporting Station
Blowing Snow Blowing Snow  
Wind Chill: -17°   Ceiling: 20000
Heat Index:   Visibility: 6mi
Dew Point: -13°   Wind: 13mph
Humidity: 51%   Direction: 200°SSW
Pressure: 30.56"   Gusts: 20mph
Location:  55.18°N, 53.8°E
Report Text: UWKE 261630Z 20006G09MPS 9999 DRSN OVC200 M17/M25 Q1035 NOSIGRMK QFE759/1012 21090070
Loading
Personal Weather Stations






























Interactive Weather Map New forecast layout! Learn more

10-Day Weather Forecast

Advertisements
Track Severe Weather on mobile